sensor_id;sensor_type;location;lat;lon;timestamp;temperature;humidity
18998;DHT22;9632;51.018;4.284;2023-02-24T00:02:01;9.20;99.90
18998;DHT22;9632;51.018;4.284;2023-02-24T00:04:34;9.20;99.90
18998;DHT22;9632;51.018;4.284;2023-02-24T00:07:00;9.20;99.90
18998;DHT22;9632;51.018;4.284;2023-02-24T00:09:28;9.20;99.90
18998;DHT22;9632;51.018;4.284;2023-02-24T00:12:14;9.10;99.90
18998;DHT22;9632;51.018;4.284;2023-02-24T00:14:42;9.10;99.90
18998;DHT22;9632;51.018;4.284;2023-02-24T00:17:09;9.10;99.90
18998;DHT22;9632;51.018;4.284;2023-02-24T00:19:38;9.10;99.90
18998;DHT22;9632;51.018;4.284;2023-02-24T00:22:06;9.00;99.90
18998;DHT22;9632;51.018;4.284;2023-02-24T00:24:33;9.00;99.90
18998;DHT22;9632;51.018;4.284;2023-02-24T00:27:00;9.00;99.90
18998;DHT22;9632;51.018;4.284;2023-02-24T00:29:28;9.00;99.90
18998;DHT22;9632;51.018;4.284;2023-02-24T00:31:55;9.00;99.90
18998;DHT22;9632;51.018;4.284;2023-02-24T00:34:32;8.90;99.90
18998;DHT22;9632;51.018;4.284;2023-02-24T00:36:58;8.90;99.90
18998;DHT22;9632;51.018;4.284;2023-02-24T00:39:24;8.90;99.90
18998;DHT22;9632;51.018;4.284;2023-02-24T00:41:58;8.90;99.90
18998;DHT22;9632;51.018;4.284;2023-02-24T00:44:30;8.90;99.90
18998;DHT22;9632;51.018;4.284;2023-02-24T00:46:57;8.80;99.90
18998;DHT22;9632;51.018;4.284;2023-02-24T00:49:24;8.80;99.90
18998;DHT22;9632;51.018;4.284;2023-02-24T00:51:50;8.80;99.90
18998;DHT22;9632;51.018;4.284;2023-02-24T00:54:19;8.70;99.90
18998;DHT22;9632;51.018;4.284;2023-02-24T00:56:46;8.70;99.90
18998;DHT22;9632;51.018;4.284;2023-02-24T00:59:14;8.70;99.90
18998;DHT22;9632;51.018;4.284;2023-02-24T01:01:41;8.60;99.90
18998;DHT22;9632;51.018;4.284;2023-02-24T01:04:09;8.60;99.90
18998;DHT22;9632;51.018;4.284;2023-02-24T01:06:38;8.50;99.90
18998;DHT22;9632;51.018;4.284;2023-02-24T01:09:05;8.50;99.90
18998;DHT22;9632;51.018;4.284;2023-02-24T01:11:35;8.50;99.90
18998;DHT22;9632;51.018;4.284;2023-02-24T01:14:23;8.40;99.90
18998;DHT22;9632;51.018;4.284;2023-02-24T01:16:49;8.40;99.90
18998;DHT22;9632;51.018;4.284;2023-02-24T01:19:17;8.30;99.90
18998;DHT22;9632;51.018;4.284;2023-02-24T01:21:43;8.30;99.90
18998;DHT22;9632;51.018;4.284;2023-02-24T01:24:10;8.20;99.90
18998;DHT22;9632;51.018;4.284;2023-02-24T01:26:36;8.20;99.90
18998;DHT22;9632;51.018;4.284;2023-02-24T01:29:02;8.10;99.90
18998;DHT22;9632;51.018;4.284;2023-02-24T01:31:37;8.10;99.90
18998;DHT22;9632;51.018;4.284;2023-02-24T01:34:04;8.00;99.90
18998;DHT22;9632;51.018;4.284;2023-02-24T01:36:30;8.00;99.90
18998;DHT22;9632;51.018;4.284;2023-02-24T01:38:58;7.90;99.90
18998;DHT22;9632;51.018;4.284;2023-02-24T01:41:24;7.90;99.90
18998;DHT22;9632;51.018;4.284;2023-02-24T01:46:54;8.00;99.90
18998;DHT22;9632;51.018;4.284;2023-02-24T01:49:24;8.00;99.90
18998;DHT22;9632;51.018;4.284;2023-02-24T01:51:58;7.90;99.90
18998;DHT22;9632;51.018;4.284;2023-02-24T01:54:33;8.00;99.90
18998;DHT22;9632;51.018;4.284;2023-02-24T01:56:59;8.00;99.90
18998;DHT22;9632;51.018;4.284;2023-02-24T01:59:29;8.00;99.90
18998;DHT22;9632;51.018;4.284;2023-02-24T02:01:59;8.00;99.90
18998;DHT22;9632;51.018;4.284;2023-02-24T02:04:47;8.00;99.90
18998;DHT22;9632;51.018;4.284;2023-02-24T02:07:17;8.00;99.90
18998;DHT22;9632;51.018;4.284;2023-02-24T02:09:45;8.10;99.90
18998;DHT22;9632;51.018;4.284;2023-02-24T02:12:11;8.00;99.90
18998;DHT22;9632;51.018;4.284;2023-02-24T02:14:43;8.00;99.90
18998;DHT22;9632;51.018;4.284;2023-02-24T02:17:30;8.00;99.90
18998;DHT22;9632;51.018;4.284;2023-02-24T02:31:43;8.00;99.90
18998;DHT22;9632;51.018;4.284;2023-02-24T02:34:07;8.00;99.90
18998;DHT22;9632;51.018;4.284;2023-02-24T02:45:07;8.00;99.90
18998;DHT22;9632;51.018;4.284;2023-02-24T02:53:10;8.00;99.90
18998;DHT22;9632;51.018;4.284;2023-02-24T02:55:56;8.00;99.90
18998;DHT22;9632;51.018;4.284;2023-02-24T02:58:26;8.00;99.90
18998;DHT22;9632;51.018;4.284;2023-02-24T03:00:55;8.00;99.90
18998;DHT22;9632;51.018;4.284;2023-02-24T03:03:36;8.00;99.90
18998;DHT22;9632;51.018;4.284;2023-02-24T03:06:26;8.00;99.90
18998;DHT22;9632;51.018;4.284;2023-02-24T03:08:57;8.00;99.90
18998;DHT22;9632;51.018;4.284;2023-02-24T03:11:24;8.00;99.90
18998;DHT22;9632;51.018;4.284;2023-02-24T03:13:53;8.10;99.90
18998;DHT22;9632;51.018;4.284;2023-02-24T03:16:21;8.10;99.90
18998;DHT22;9632;51.018;4.284;2023-02-24T03:18:51;8.00;99.90
18998;DHT22;9632;51.018;4.284;2023-02-24T03:21:40;8.00;99.90
18998;DHT22;9632;51.018;4.284;2023-02-24T03:24:07;8.10;99.90
18998;DHT22;9632;51.018;4.284;2023-02-24T03:26:45;8.10;99.90
18998;DHT22;9632;51.018;4.284;2023-02-24T03:29:27;8.10;99.90
18998;DHT22;9632;51.018;4.284;2023-02-24T03:31:59;8.00;99.90
18998;DHT22;9632;51.018;4.284;2023-02-24T03:34:46;8.10;99.90
18998;DHT22;9632;51.018;4.284;2023-02-24T03:37:15;8.10;99.90
18998;DHT22;9632;51.018;4.284;2023-02-24T03:39:41;8.10;99.90
18998;DHT22;9632;51.018;4.284;2023-02-24T03:42:13;8.10;99.90
18998;DHT22;9632;51.018;4.284;2023-02-24T03:44:39;8.10;99.90
18998;DHT22;9632;51.018;4.284;2023-02-24T03:47:05;8.20;99.90
18998;DHT22;9632;51.018;4.284;2023-02-24T03:49:34;8.20;99.90
18998;DHT22;9632;51.018;4.284;2023-02-24T03:52:17;8.10;99.90
18998;DHT22;9632;51.018;4.284;2023-02-24T04:00:07;8.10;99.90
18998;DHT22;9632;51.018;4.284;2023-02-24T04:05:32;8.10;99.90
18998;DHT22;9632;51.018;4.284;2023-02-24T04:08:04;8.10;99.90
18998;DHT22;9632;51.018;4.284;2023-02-24T04:10:36;8.10;99.90
18998;DHT22;9632;51.018;4.284;2023-02-24T04:13:26;8.10;99.90
18998;DHT22;9632;51.018;4.284;2023-02-24T04:16:04;8.10;99.90
18998;DHT22;9632;51.018;4.284;2023-02-24T04:18:33;8.10;99.90
18998;DHT22;9632;51.018;4.284;2023-02-24T04:21:02;8.10;99.90
18998;DHT22;9632;51.018;4.284;2023-02-24T04:23:37;8.10;99.90
18998;DHT22;9632;51.018;4.284;2023-02-24T04:26:05;8.10;99.90
18998;DHT22;9632;51.018;4.284;2023-02-24T04:28:31;8.10;99.90
18998;DHT22;9632;51.018;4.284;2023-02-24T04:31:00;8.10;99.90
18998;DHT22;9632;51.018;4.284;2023-02-24T04:33:31;8.20;99.90
18998;DHT22;9632;51.018;4.284;2023-02-24T04:35:57;8.20;99.90
18998;DHT22;9632;51.018;4.284;2023-02-24T04:38:23;8.20;99.90
18998;DHT22;9632;51.018;4.284;2023-02-24T04:40:49;8.20;99.90
18998;DHT22;9632;51.018;4.284;2023-02-24T04:43:16;8.10;99.90
18998;DHT22;9632;51.018;4.284;2023-02-24T04:45:42;8.10;99.90
18998;DHT22;9632;51.018;4.284;2023-02-24T04:48:09;8.10;99.90
18998;DHT22;9632;51.018;4.284;2023-02-24T04:50:40;8.10;99.90
18998;DHT22;9632;51.018;4.284;2023-02-24T04:53:11;8.10;99.90
18998;DHT22;9632;51.018;4.284;2023-02-24T04:55:40;8.10;99.90
18998;DHT22;9632;51.018;4.284;2023-02-24T04:58:11;8.00;99.90
18998;DHT22;9632;51.018;4.284;2023-02-24T05:00:37;8.00;99.90
18998;DHT22;9632;51.018;4.284;2023-02-24T05:03:06;8.10;99.90
18998;DHT22;9632;51.018;4.284;2023-02-24T05:05:33;8.10;99.90
18998;DHT22;9632;51.018;4.284;2023-02-24T05:08:05;8.10;99.90
18998;DHT22;9632;51.018;4.284;2023-02-24T05:10:39;8.00;99.90
18998;DHT22;9632;51.018;4.284;2023-02-24T05:13:06;8.00;99.90
18998;DHT22;9632;51.018;4.284;2023-02-24T05:15:33;8.00;99.90
18998;DHT22;9632;51.018;4.284;2023-02-24T05:18:05;8.00;99.90
18998;DHT22;9632;51.018;4.284;2023-02-24T05:20:39;8.00;99.90
18998;DHT22;9632;51.018;4.284;2023-02-24T05:23:28;8.00;99.90
18998;DHT22;9632;51.018;4.284;2023-02-24T05:25:56;7.90;99.90
18998;DHT22;9632;51.018;4.284;2023-02-24T05:28:23;7.90;99.90
18998;DHT22;9632;51.018;4.284;2023-02-24T05:30:53;7.90;99.90
18998;DHT22;9632;51.018;4.284;2023-02-24T05:33:20;7.90;99.90
18998;DHT22;9632;51.018;4.284;2023-02-24T05:35:47;7.90;99.90
18998;DHT22;9632;51.018;4.284;2023-02-24T05:38:13;7.90;99.90
18998;DHT22;9632;51.018;4.284;2023-02-24T05:40:42;7.80;99.90
18998;DHT22;9632;51.018;4.284;2023-02-24T05:43:12;7.80;99.90
18998;DHT22;9632;51.018;4.284;2023-02-24T05:45:44;7.80;99.90
18998;DHT22;9632;51.018;4.284;2023-02-24T05:48:11;7.80;99.90
18998;DHT22;9632;51.018;4.284;2023-02-24T05:50:40;7.80;99.90
18998;DHT22;9632;51.018;4.284;2023-02-24T05:53:06;7.80;99.90
18998;DHT22;9632;51.018;4.284;2023-02-24T05:55:34;7.80;99.90
18998;DHT22;9632;51.018;4.284;2023-02-24T05:58:01;7.70;99.90
18998;DHT22;9632;51.018;4.284;2023-02-24T06:00:30;7.70;99.90
18998;DHT22;9632;51.018;4.284;2023-02-24T06:02:56;7.70;99.90
18998;DHT22;9632;51.018;4.284;2023-02-24T06:05:33;7.70;99.90
18998;DHT22;9632;51.018;4.284;2023-02-24T06:08:00;7.70;99.90
18998;DHT22;9632;51.018;4.284;2023-02-24T06:10:37;7.60;99.90
18998;DHT22;9632;51.018;4.284;2023-02-24T06:13:05;7.60;99.90
18998;DHT22;9632;51.018;4.284;2023-02-24T06:15:32;7.60;99.90
18998;DHT22;9632;51.018;4.284;2023-02-24T06:17:59;7.60;99.90
18998;DHT22;9632;51.018;4.284;2023-02-24T06:20:27;7.50;99.90
18998;DHT22;9632;51.018;4.284;2023-02-24T06:22:54;7.40;99.90
18998;DHT22;9632;51.018;4.284;2023-02-24T06:25:23;7.40;99.90
18998;DHT22;9632;51.018;4.284;2023-02-24T06:27:53;7.40;99.90
18998;DHT22;9632;51.018;4.284;2023-02-24T06:30:21;7.30;99.90
18998;DHT22;9632;51.018;4.284;2023-02-24T06:32:47;7.30;99.90
18998;DHT22;9632;51.018;4.284;2023-02-24T06:35:14;7.30;99.90
18998;DHT22;9632;51.018;4.284;2023-02-24T06:37:40;7.20;99.90
18998;DHT22;9632;51.018;4.284;2023-02-24T06:40:06;7.20;99.90
18998;DHT22;9632;51.018;4.284;2023-02-24T06:42:50;7.20;99.90
18998;DHT22;9632;51.018;4.284;2023-02-24T06:45:18;7.20;99.90
18998;DHT22;9632;51.018;4.284;2023-02-24T06:47:44;7.20;99.90
18998;DHT22;9632;51.018;4.284;2023-02-24T06:50:17;7.10;99.90
18998;DHT22;9632;51.018;4.284;2023-02-24T06:52:47;7.20;99.90
18998;DHT22;9632;51.018;4.284;2023-02-24T06:55:14;7.20;99.90
18998;DHT22;9632;51.018;4.284;2023-02-24T06:57:59;7.10;99.90
18998;DHT22;9632;51.018;4.284;2023-02-24T07:00:33;7.10;99.90
18998;DHT22;9632;51.018;4.284;2023-02-24T07:03:07;7.10;99.90
18998;DHT22;9632;51.018;4.284;2023-02-24T07:05:44;7.10;99.90
18998;DHT22;9632;51.018;4.284;2023-02-24T07:08:23;7.10;99.90
18998;DHT22;9632;51.018;4.284;2023-02-24T07:10:53;7.00;99.90
18998;DHT22;9632;51.018;4.284;2023-02-24T07:13:21;7.00;99.90
18998;DHT22;9632;51.018;4.284;2023-02-24T07:15:49;7.00;99.90
18998;DHT22;9632;51.018;4.284;2023-02-24T07:18:16;7.00;99.90
18998;DHT22;9632;51.018;4.284;2023-02-24T07:20:42;7.00;99.90
18998;DHT22;9632;51.018;4.284;2023-02-24T07:23:17;7.00;99.90
18998;DHT22;9632;51.018;4.284;2023-02-24T07:25:43;6.90;99.90
18998;DHT22;9632;51.018;4.284;2023-02-24T07:28:14;6.90;99.90
18998;DHT22;9632;51.018;4.284;2023-02-24T07:30:41;6.90;99.90
18998;DHT22;9632;51.018;4.284;2023-02-24T07:33:07;6.90;99.90
18998;DHT22;9632;51.018;4.284;2023-02-24T07:35:34;7.00;99.90
18998;DHT22;9632;51.018;4.284;2023-02-24T07:38:04;6.90;99.90
18998;DHT22;9632;51.018;4.284;2023-02-24T07:40:31;6.90;99.90
18998;DHT22;9632;51.018;4.284;2023-02-24T07:43:00;6.90;99.90
18998;DHT22;9632;51.018;4.284;2023-02-24T07:45:26;7.00;99.90
18998;DHT22;9632;51.018;4.284;2023-02-24T07:47:52;7.00;99.90
18998;DHT22;9632;51.018;4.284;2023-02-24T07:50:18;7.10;99.90
18998;DHT22;9632;51.018;4.284;2023-02-24T07:52:47;7.10;99.90
18998;DHT22;9632;51.018;4.284;2023-02-24T07:55:14;7.10;99.90
18998;DHT22;9632;51.018;4.284;2023-02-24T07:57:41;7.10;99.90
18998;DHT22;9632;51.018;4.284;2023-02-24T08:00:12;7.10;99.90
18998;DHT22;9632;51.018;4.284;2023-02-24T08:02:48;7.10;99.90
18998;DHT22;9632;51.018;4.284;2023-02-24T08:05:15;7.10;99.90
18998;DHT22;9632;51.018;4.284;2023-02-24T08:07:45;7.20;99.90
18998;DHT22;9632;51.018;4.284;2023-02-24T08:10:20;7.20;99.90
18998;DHT22;9632;51.018;4.284;2023-02-24T08:12:53;7.20;99.90
18998;DHT22;9632;51.018;4.284;2023-02-24T08:15:24;7.20;99.90
18998;DHT22;9632;51.018;4.284;2023-02-24T08:17:56;7.20;99.90
18998;DHT22;9632;51.018;4.284;2023-02-24T08:20:25;7.30;99.90
18998;DHT22;9632;51.018;4.284;2023-02-24T08:22:53;7.30;99.90
18998;DHT22;9632;51.018;4.284;2023-02-24T08:25:24;7.30;99.90
18998;DHT22;9632;51.018;4.284;2023-02-24T08:28:00;7.30;99.90
18998;DHT22;9632;51.018;4.284;2023-02-24T08:30:31;7.30;99.90
18998;DHT22;9632;51.018;4.284;2023-02-24T08:33:07;7.30;99.90
18998;DHT22;9632;51.018;4.284;2023-02-24T08:35:35;7.40;99.90
18998;DHT22;9632;51.018;4.284;2023-02-24T08:38:05;7.40;99.90
18998;DHT22;9632;51.018;4.284;2023-02-24T08:40:35;7.50;99.90
18998;DHT22;9632;51.018;4.284;2023-02-24T08:43:12;7.60;99.90
18998;DHT22;9632;51.018;4.284;2023-02-24T08:45:47;7.70;99.90
18998;DHT22;9632;51.018;4.284;2023-02-24T08:48:19;7.70;99.90
18998;DHT22;9632;51.018;4.284;2023-02-24T08:50:55;7.80;99.90
18998;DHT22;9632;51.018;4.284;2023-02-24T08:53:22;7.80;99.90
18998;DHT22;9632;51.018;4.284;2023-02-24T08:55:49;7.80;99.90
18998;DHT22;9632;51.018;4.284;2023-02-24T08:58:18;7.80;99.90
18998;DHT22;9632;51.018;4.284;2023-02-24T09:00:45;7.90;99.90
18998;DHT22;9632;51.018;4.284;2023-02-24T09:03:15;8.00;99.90
18998;DHT22;9632;51.018;4.284;2023-02-24T09:06:04;8.10;99.90
18998;DHT22;9632;51.018;4.284;2023-02-24T09:08:35;8.10;99.90
18998;DHT22;9632;51.018;4.284;2023-02-24T09:11:08;8.10;99.90
18998;DHT22;9632;51.018;4.284;2023-02-24T09:13:35;8.20;99.90
18998;DHT22;9632;51.018;4.284;2023-02-24T09:16:03;8.30;99.90
18998;DHT22;9632;51.018;4.284;2023-02-24T09:18:29;8.40;99.90
18998;DHT22;9632;51.018;4.284;2023-02-24T09:20:58;8.40;99.90
18998;DHT22;9632;51.018;4.284;2023-02-24T09:23:43;8.60;99.90
18998;DHT22;9632;51.018;4.284;2023-02-24T09:26:12;8.60;99.90
18998;DHT22;9632;51.018;4.284;2023-02-24T09:28:41;8.70;99.90
18998;DHT22;9632;51.018;4.284;2023-02-24T09:31:35;8.70;99.90
18998;DHT22;9632;51.018;4.284;2023-02-24T09:34:22;8.80;99.90
18998;DHT22;9632;51.018;4.284;2023-02-24T09:36:54;8.80;99.90
18998;DHT22;9632;51.018;4.284;2023-02-24T09:39:30;8.90;99.90
18998;DHT22;9632;51.018;4.284;2023-02-24T09:42:39;8.90;99.90
18998;DHT22;9632;51.018;4.284;2023-02-24T09:45:20;8.90;99.90
18998;DHT22;9632;51.018;4.284;2023-02-24T09:48:11;9.00;99.90
18998;DHT22;9632;51.018;4.284;2023-02-24T09:50:40;9.00;99.90
18998;DHT22;9632;51.018;4.284;2023-02-24T09:53:26;9.00;99.90
18998;DHT22;9632;51.018;4.284;2023-02-24T09:56:05;9.00;99.90
18998;DHT22;9632;51.018;4.284;2023-02-24T10:06:38;9.10;99.90
18998;DHT22;9632;51.018;4.284;2023-02-24T10:09:40;9.10;99.90
18998;DHT22;9632;51.018;4.284;2023-02-24T10:16:26;9.00;99.90
18998;DHT22;9632;51.018;4.284;2023-02-24T10:19:13;9.00;99.90
18998;DHT22;9632;51.018;4.284;2023-02-24T10:21:47;9.00;99.90
18998;DHT22;9632;51.018;4.284;2023-02-24T10:24:41;9.00;99.90
18998;DHT22;9632;51.018;4.284;2023-02-24T10:29:41;9.00;99.90
18998;DHT22;9632;51.018;4.284;2023-02-24T10:32:17;9.10;99.90
18998;DHT22;9632;51.018;4.284;2023-02-24T10:34:51;9.10;99.90
18998;DHT22;9632;51.018;4.284;2023-02-24T10:37:22;9.00;99.90
18998;DHT22;9632;51.018;4.284;2023-02-24T10:39:49;9.10;99.90
18998;DHT22;9632;51.018;4.284;2023-02-24T10:42:33;9.20;99.90
18998;DHT22;9632;51.018;4.284;2023-02-24T10:45:24;9.30;99.90
18998;DHT22;9632;51.018;4.284;2023-02-24T10:47:56;9.30;99.90
18998;DHT22;9632;51.018;4.284;2023-02-24T10:50:26;9.20;99.90
18998;DHT22;9632;51.018;4.284;2023-02-24T10:53:00;9.20;99.90
18998;DHT22;9632;51.018;4.284;2023-02-24T10:55:35;9.20;99.90
18998;DHT22;9632;51.018;4.284;2023-02-24T10:58:32;9.20;99.90
18998;DHT22;9632;51.018;4.284;2023-02-24T11:01:29;9.30;99.90
18998;DHT22;9632;51.018;4.284;2023-02-24T11:04:17;9.40;99.90
18998;DHT22;9632;51.018;4.284;2023-02-24T11:07:21;9.40;99.90
18998;DHT22;9632;51.018;4.284;2023-02-24T11:12:36;9.50;99.90
18998;DHT22;9632;51.018;4.284;2023-02-24T11:15:32;9.50;99.90
18998;DHT22;9632;51.018;4.284;2023-02-24T11:18:25;9.50;99.90
18998;DHT22;9632;51.018;4.284;2023-02-24T11:23:32;9.60;99.90
18998;DHT22;9632;51.018;4.284;2023-02-24T11:26:25;9.70;99.90
18998;DHT22;9632;51.018;4.284;2023-02-24T11:35:09;9.90;99.90
18998;DHT22;9632;51.018;4.284;2023-02-24T11:37:42;10.00;99.90
18998;DHT22;9632;51.018;4.284;2023-02-24T11:40:21;10.00;99.90
18998;DHT22;9632;51.018;4.284;2023-02-24T11:42:52;10.00;99.90
18998;DHT22;9632;51.018;4.284;2023-02-24T11:45:33;9.90;99.90
18998;DHT22;9632;51.018;4.284;2023-02-24T11:48:22;10.00;99.90
18998;DHT22;9632;51.018;4.284;2023-02-24T11:53:26;10.00;99.90
18998;DHT22;9632;51.018;4.284;2023-02-24T11:56:04;10.10;99.90
18998;DHT22;9632;51.018;4.284;2023-02-24T11:58:53;10.10;99.90
18998;DHT22;9632;51.018;4.284;2023-02-24T12:01:47;10.20;99.90
18998;DHT22;9632;51.018;4.284;2023-02-24T12:04:22;10.20;99.90
18998;DHT22;9632;51.018;4.284;2023-02-24T12:09:52;10.40;99.90
18998;DHT22;9632;51.018;4.284;2023-02-24T12:12:23;10.50;99.90
18998;DHT22;9632;51.018;4.284;2023-02-24T12:14:56;10.60;99.90
18998;DHT22;9632;51.018;4.284;2023-02-24T12:17:36;10.60;99.90
18998;DHT22;9632;51.018;4.284;2023-02-24T12:20:04;10.70;99.90
18998;DHT22;9632;51.018;4.284;2023-02-24T12:22:49;10.70;99.90
18998;DHT22;9632;51.018;4.284;2023-02-24T12:25:19;10.60;99.90
18998;DHT22;9632;51.018;4.284;2023-02-24T12:28:11;10.60;99.90
18998;DHT22;9632;51.018;4.284;2023-02-24T12:31:01;10.70;99.90
18998;DHT22;9632;51.018;4.284;2023-02-24T12:33:48;10.60;99.90
18998;DHT22;9632;51.018;4.284;2023-02-24T12:37:37;10.60;99.90
18998;DHT22;9632;51.018;4.284;2023-02-24T12:51:23;10.70;99.90
18998;DHT22;9632;51.018;4.284;2023-02-24T12:59:39;10.90;99.90
18998;DHT22;9632;51.018;4.284;2023-02-24T13:02:16;10.90;99.90
18998;DHT22;9632;51.018;4.284;2023-02-24T13:05:08;10.90;99.90
18998;DHT22;9632;51.018;4.284;2023-02-24T13:12:41;10.90;99.90
18998;DHT22;9632;51.018;4.284;2023-02-24T13:15:20;10.80;99.90
18998;DHT22;9632;51.018;4.284;2023-02-24T13:17:48;10.80;99.90
18998;DHT22;9632;51.018;4.284;2023-02-24T13:22:51;10.70;99.90
18998;DHT22;9632;51.018;4.284;2023-02-24T13:25:20;10.60;99.90
18998;DHT22;9632;51.018;4.284;2023-02-24T13:28:00;10.70;99.90
18998;DHT22;9632;51.018;4.284;2023-02-24T13:30:43;10.70;99.90
18998;DHT22;9632;51.018;4.284;2023-02-24T13:36:06;10.50;99.90
18998;DHT22;9632;51.018;4.284;2023-02-24T13:41:59;10.50;99.90
18998;DHT22;9632;51.018;4.284;2023-02-24T13:47:13;10.30;99.90
18998;DHT22;9632;51.018;4.284;2023-02-24T14:01:06;10.20;99.90
18998;DHT22;9632;51.018;4.284;2023-02-24T14:03:33;10.20;99.90
18998;DHT22;9632;51.018;4.284;2023-02-24T14:06:00;10.20;99.90
18998;DHT22;9632;51.018;4.284;2023-02-24T14:08:46;10.20;99.90
18998;DHT22;9632;51.018;4.284;2023-02-24T14:11:16;10.20;99.90
18998;DHT22;9632;51.018;4.284;2023-02-24T14:13:48;10.20;99.90
18998;DHT22;9632;51.018;4.284;2023-02-24T14:16:22;10.20;99.90
18998;DHT22;9632;51.018;4.284;2023-02-24T14:19:12;10.20;99.90
18998;DHT22;9632;51.018;4.284;2023-02-24T14:21:51;10.20;99.90
18998;DHT22;9632;51.018;4.284;2023-02-24T14:24:17;10.20;99.90
18998;DHT22;9632;51.018;4.284;2023-02-24T14:26:55;10.00;99.90
18998;DHT22;9632;51.018;4.284;2023-02-24T14:29:27;10.00;99.90
18998;DHT22;9632;51.018;4.284;2023-02-24T14:31:56;10.00;99.90
18998;DHT22;9632;51.018;4.284;2023-02-24T14:34:25;10.00;99.90
18998;DHT22;9632;51.018;4.284;2023-02-24T14:36:54;10.00;99.90
18998;DHT22;9632;51.018;4.284;2023-02-24T14:39:25;9.90;99.90
18998;DHT22;9632;51.018;4.284;2023-02-24T14:44:29;9.80;99.90
18998;DHT22;9632;51.018;4.284;2023-02-24T14:47:02;9.80;99.90
18998;DHT22;9632;51.018;4.284;2023-02-24T14:49:30;9.80;99.90
18998;DHT22;9632;51.018;4.284;2023-02-24T14:52:01;9.80;99.90
18998;DHT22;9632;51.018;4.284;2023-02-24T14:54:46;9.80;99.90
18998;DHT22;9632;51.018;4.284;2023-02-24T14:57:19;9.80;99.90
18998;DHT22;9632;51.018;4.284;2023-02-24T14:59:49;9.80;99.90
18998;DHT22;9632;51.018;4.284;2023-02-24T15:02:19;9.80;99.90
18998;DHT22;9632;51.018;4.284;2023-02-24T15:04:46;9.80;99.90
18998;DHT22;9632;51.018;4.284;2023-02-24T15:07:22;9.80;99.90
18998;DHT22;9632;51.018;4.284;2023-02-24T15:09:49;9.80;99.90
18998;DHT22;9632;51.018;4.284;2023-02-24T15:12:32;9.80;99.90
18998;DHT22;9632;51.018;4.284;2023-02-24T15:15:05;9.80;99.90
18998;DHT22;9632;51.018;4.284;2023-02-24T15:17:38;9.90;99.90
18998;DHT22;9632;51.018;4.284;2023-02-24T15:20:30;9.90;99.90
18998;DHT22;9632;51.018;4.284;2023-02-24T15:22:56;9.90;99.90
18998;DHT22;9632;51.018;4.284;2023-02-24T15:25:28;9.90;99.90
18998;DHT22;9632;51.018;4.284;2023-02-24T15:27:58;9.80;99.90
18998;DHT22;9632;51.018;4.284;2023-02-24T15:30:31;9.90;99.90
18998;DHT22;9632;51.018;4.284;2023-02-24T15:33:13;9.90;99.90
18998;DHT22;9632;51.018;4.284;2023-02-24T15:35:50;9.90;99.90
18998;DHT22;9632;51.018;4.284;2023-02-24T15:38:34;9.90;99.90
18998;DHT22;9632;51.018;4.284;2023-02-24T15:41:02;9.90;99.90
18998;DHT22;9632;51.018;4.284;2023-02-24T15:43:47;9.90;99.90
18998;DHT22;9632;51.018;4.284;2023-02-24T15:48:51;10.00;99.90
18998;DHT22;9632;51.018;4.284;2023-02-24T15:51:25;10.00;99.90
18998;DHT22;9632;51.018;4.284;2023-02-24T15:53:53;10.00;99.90
18998;DHT22;9632;51.018;4.284;2023-02-24T15:56:19;10.00;99.90
18998;DHT22;9632;51.018;4.284;2023-02-24T15:58:44;10.00;99.90
18998;DHT22;9632;51.018;4.284;2023-02-24T16:01:11;10.00;99.90
18998;DHT22;9632;51.018;4.284;2023-02-24T16:03:36;10.00;99.90
18998;DHT22;9632;51.018;4.284;2023-02-24T16:06:02;9.90;99.90
18998;DHT22;9632;51.018;4.284;2023-02-24T16:08:29;9.90;99.90
18998;DHT22;9632;51.018;4.284;2023-02-24T16:10:55;9.90;99.90
18998;DHT22;9632;51.018;4.284;2023-02-24T16:13:23;9.90;99.90
18998;DHT22;9632;51.018;4.284;2023-02-24T16:15:50;10.00;99.90
18998;DHT22;9632;51.018;4.284;2023-02-24T16:18:21;9.90;99.90
18998;DHT22;9632;51.018;4.284;2023-02-24T16:20:48;10.00;99.90
18998;DHT22;9632;51.018;4.284;2023-02-24T16:23:19;10.00;99.90
18998;DHT22;9632;51.018;4.284;2023-02-24T16:25:47;10.00;99.90
18998;DHT22;9632;51.018;4.284;2023-02-24T16:28:15;10.00;99.90
18998;DHT22;9632;51.018;4.284;2023-02-24T16:30:41;9.90;99.90
18998;DHT22;9632;51.018;4.284;2023-02-24T16:33:12;10.00;99.90
18998;DHT22;9632;51.018;4.284;2023-02-24T16:35:39;9.90;99.90
18998;DHT22;9632;51.018;4.284;2023-02-24T16:38:08;9.90;99.90
18998;DHT22;9632;51.018;4.284;2023-02-24T16:40:44;9.80;99.90
18998;DHT22;9632;51.018;4.284;2023-02-24T16:43:11;9.80;99.90
18998;DHT22;9632;51.018;4.284;2023-02-24T16:45:38;9.80;99.90
18998;DHT22;9632;51.018;4.284;2023-02-24T16:48:06;9.80;99.90
18998;DHT22;9632;51.018;4.284;2023-02-24T16:50:39;9.80;99.90
18998;DHT22;9632;51.018;4.284;2023-02-24T16:53:06;9.80;99.90
18998;DHT22;9632;51.018;4.284;2023-02-24T16:55:32;9.70;99.90
18998;DHT22;9632;51.018;4.284;2023-02-24T16:57:58;9.70;99.90
18998;DHT22;9632;51.018;4.284;2023-02-24T17:00:26;9.60;99.90
18998;DHT22;9632;51.018;4.284;2023-02-24T17:02:52;9.70;99.90
18998;DHT22;9632;51.018;4.284;2023-02-24T17:05:20;9.60;99.90
18998;DHT22;9632;51.018;4.284;2023-02-24T17:07:47;9.60;99.90
18998;DHT22;9632;51.018;4.284;2023-02-24T17:10:14;9.60;99.90
18998;DHT22;9632;51.018;4.284;2023-02-24T17:12:39;9.60;99.90
18998;DHT22;9632;51.018;4.284;2023-02-24T17:15:06;9.60;99.90
18998;DHT22;9632;51.018;4.284;2023-02-24T17:17:33;9.60;99.90
18998;DHT22;9632;51.018;4.284;2023-02-24T17:20:00;9.50;99.90
18998;DHT22;9632;51.018;4.284;2023-02-24T17:22:26;9.50;99.90
18998;DHT22;9632;51.018;4.284;2023-02-24T17:24:51;9.50;99.90
18998;DHT22;9632;51.018;4.284;2023-02-24T17:27:17;9.50;99.90
18998;DHT22;9632;51.018;4.284;2023-02-24T17:29:42;9.40;99.90
18998;DHT22;9632;51.018;4.284;2023-02-24T17:32:08;9.40;99.90
18998;DHT22;9632;51.018;4.284;2023-02-24T17:34:34;9.40;99.90
18998;DHT22;9632;51.018;4.284;2023-02-24T17:36:59;9.30;99.90
18998;DHT22;9632;51.018;4.284;2023-02-24T17:39:25;9.40;99.90
18998;DHT22;9632;51.018;4.284;2023-02-24T17:41:51;9.30;99.90
18998;DHT22;9632;51.018;4.284;2023-02-24T17:44:16;9.20;99.90
18998;DHT22;9632;51.018;4.284;2023-02-24T17:46:42;9.20;99.90
18998;DHT22;9632;51.018;4.284;2023-02-24T17:49:08;9.20;99.90
18998;DHT22;9632;51.018;4.284;2023-02-24T17:51:34;9.20;99.90
18998;DHT22;9632;51.018;4.284;2023-02-24T17:53:59;9.10;99.90
18998;DHT22;9632;51.018;4.284;2023-02-24T17:56:25;9.00;99.90
18998;DHT22;9632;51.018;4.284;2023-02-24T17:58:51;9.00;99.90
18998;DHT22;9632;51.018;4.284;2023-02-24T18:01:23;9.00;99.90
18998;DHT22;9632;51.018;4.284;2023-02-24T18:03:49;8.90;99.90
18998;DHT22;9632;51.018;4.284;2023-02-24T18:06:15;8.90;99.90
18998;DHT22;9632;51.018;4.284;2023-02-24T18:08:40;8.90;99.90
18998;DHT22;9632;51.018;4.284;2023-02-24T18:11:07;8.90;99.90
18998;DHT22;9632;51.018;4.284;2023-02-24T18:13:34;8.80;99.90
18998;DHT22;9632;51.018;4.284;2023-02-24T18:16:00;8.90;99.90
18998;DHT22;9632;51.018;4.284;2023-02-24T18:18:26;8.80;99.90
18998;DHT22;9632;51.018;4.284;2023-02-24T18:20:59;8.80;99.90
18998;DHT22;9632;51.018;4.284;2023-02-24T18:23:26;8.70;99.90
18998;DHT22;9632;51.018;4.284;2023-02-24T18:25:51;8.70;99.90
18998;DHT22;9632;51.018;4.284;2023-02-24T18:28:17;8.70;99.90
18998;DHT22;9632;51.018;4.284;2023-02-24T18:30:45;8.70;99.90